KNGP/NGP METAR and TAF weather

Enter ICAO airport designator
Station Type Date Time Source
KNGP METAR 2020/07/11 00:15 UTC NOAA

KNGP 110015Z AUTO 16018KT 10SM SCT015 30/27 A2998 RMK AO2 T03000272 $


Station Type Date Time Source
KNGP Decoded METAR 2020/07/11 00:15 UTC NOAA

CORPUS CHRISTI NAVAL AIR STN, TX, United States (KNGP) 27-41N 097-17W
Jul 10, 2020 - 08:15 PM EDT / 2020.07.11 0015 UTC
Wind: from the SSE (160 degrees) at 21 MPH (18 KT):0
Visibility: 10 mile(s):0
Sky conditions: partly cloudy
Temperature: 86.0 F (30.0 C)
Heat index: 102.4 F (39.1 C):1
Dew Point: 81.0 F (27.2 C)
Relative Humidity: 85%
Pressure (altimeter): 29.98 in. Hg (1015 hPa)
ob: KNGP 110015Z AUTO 16018KT 10SM SCT015 30/27 A2998 RMK AO2 T03000272
cycle: 0

Station Type Date Time Source
KNGP TAF 2020/07/10 23:58 UTC NOAA

TAF KNGP 1023/1123 15018G27KT 9999 SCT015 SCT250 510003 QNH2995INS
TEMPO 1100/1101 15016G25KT FEW015
FM110200 15015G22KT 9999 FEW012 SCT015 500000 QNH2997INS
FM110400 16012KT 9999 FEW013 SCT016 QNH2997INS
TEMPO 1104/1110 SCT012 BKN016
FM111100 19008KT 9000 BR FEW008 SCT015 QNH2995INS
TEMPO 1111/1115 FEW008 BKN014
FM111600 16012G18KT 9999 FEW012 SCT016 QNH3000INS
TEMPO 1116/1118 FEW012 BKN016
FM111900 15014G20KT 9999 FEW018 QNH2987INS AUTOMATED SENSOR METWATCH 1100 TIL 1311 T27/1111Z T34/1120Z FN00003

Example: see airport list